sensor_id;sensor_type;location;lat;lon;timestamp;P1;durP1;ratioP1;P2;durP2;ratioP2
42200;SDS011;27869;51.442;7.540;2024-01-06T00:01:04;9.77;;;3.42;;
42200;SDS011;27869;51.442;7.540;2024-01-06T00:03:31;9.68;;;3.17;;
42200;SDS011;27869;51.442;7.540;2024-01-06T00:05:58;10.05;;;3.13;;
42200;SDS011;27869;51.442;7.540;2024-01-06T00:08:25;10.02;;;3.45;;
42200;SDS011;27869;51.442;7.540;2024-01-06T00:10:53;8.98;;;3.25;;
42200;SDS011;27869;51.442;7.540;2024-01-06T00:13:21;9.40;;;3.05;;
42200;SDS011;27869;51.442;7.540;2024-01-06T00:15:48;10.43;;;3.67;;
42200;SDS011;27869;51.442;7.540;2024-01-06T00:18:14;10.05;;;3.55;;
42200;SDS011;27869;51.442;7.540;2024-01-06T00:20:41;9.77;;;3.40;;
42200;SDS011;27869;51.442;7.540;2024-01-06T00:23:08;11.18;;;4.00;;
42200;SDS011;27869;51.442;7.540;2024-01-06T00:25:35;11.20;;;3.35;;
42200;SDS011;27869;51.442;7.540;2024-01-06T00:28:04;10.45;;;3.75;;
42200;SDS011;27869;51.442;7.540;2024-01-06T00:30:31;9.73;;;3.60;;
42200;SDS011;27869;51.442;7.540;2024-01-06T00:32:58;10.68;;;3.80;;
42200;SDS011;27869;51.442;7.540;2024-01-06T00:35:25;10.30;;;3.72;;
42200;SDS011;27869;51.442;7.540;2024-01-06T00:37:52;10.32;;;3.80;;
42200;SDS011;27869;51.442;7.540;2024-01-06T00:40:20;10.45;;;3.83;;
42200;SDS011;27869;51.442;7.540;2024-01-06T00:42:47;10.68;;;4.10;;
42200;SDS011;27869;51.442;7.540;2024-01-06T00:45:15;11.15;;;4.28;;
42200;SDS011;27869;51.442;7.540;2024-01-06T00:47:42;11.73;;;4.05;;
42200;SDS011;27869;51.442;7.540;2024-01-06T00:50:09;12.40;;;4.22;;
42200;SDS011;27869;51.442;7.540;2024-01-06T00:52:36;11.20;;;4.22;;
42200;SDS011;27869;51.442;7.540;2024-01-06T00:55:03;10.85;;;4.10;;
42200;SDS011;27869;51.442;7.540;2024-01-06T00:57:30;11.73;;;4.35;;
42200;SDS011;27869;51.442;7.540;2024-01-06T00:59:57;11.45;;;4.55;;
42200;SDS011;27869;51.442;7.540;2024-01-06T01:02:25;11.43;;;4.55;;
42200;SDS011;27869;51.442;7.540;2024-01-06T01:04:52;11.68;;;4.60;;
42200;SDS011;27869;51.442;7.540;2024-01-06T01:07:19;11.32;;;4.63;;
42200;SDS011;27869;51.442;7.540;2024-01-06T01:09:46;11.65;;;4.70;;
42200;SDS011;27869;51.442;7.540;2024-01-06T01:12:13;12.43;;;4.85;;
42200;SDS011;27869;51.442;7.540;2024-01-06T01:14:40;11.18;;;4.30;;
42200;SDS011;27869;51.442;7.540;2024-01-06T01:17:06;11.10;;;4.40;;
42200;SDS011;27869;51.442;7.540;2024-01-06T01:19:35;11.90;;;4.40;;
42200;SDS011;27869;51.442;7.540;2024-01-06T01:22:01;11.15;;;4.15;;
42200;SDS011;27869;51.442;7.540;2024-01-06T01:24:28;12.43;;;4.97;;
42200;SDS011;27869;51.442;7.540;2024-01-06T01:26:54;13.13;;;4.30;;
42200;SDS011;27869;51.442;7.540;2024-01-06T01:29:21;13.50;;;4.78;;
42200;SDS011;27869;51.442;7.540;2024-01-06T01:31:48;11.75;;;4.35;;
42200;SDS011;27869;51.442;7.540;2024-01-06T01:34:15;12.63;;;4.57;;
42200;SDS011;27869;51.442;7.540;2024-01-06T01:36:43;12.02;;;4.93;;
42200;SDS011;27869;51.442;7.540;2024-01-06T01:39:10;10.75;;;4.00;;
42200;SDS011;27869;51.442;7.540;2024-01-06T01:41:37;12.07;;;4.80;;
42200;SDS011;27869;51.442;7.540;2024-01-06T01:44:06;11.60;;;4.50;;
42200;SDS011;27869;51.442;7.540;2024-01-06T01:46:33;11.82;;;4.40;;
42200;SDS011;27869;51.442;7.540;2024-01-06T01:49:00;11.45;;;4.28;;
42200;SDS011;27869;51.442;7.540;2024-01-06T01:51:28;12.57;;;4.50;;
42200;SDS011;27869;51.442;7.540;2024-01-06T01:53:58;11.40;;;4.50;;
42200;SDS011;27869;51.442;7.540;2024-01-06T01:56:27;12.45;;;4.60;;
42200;SDS011;27869;51.442;7.540;2024-01-06T01:58:59;11.40;;;4.05;;
42200;SDS011;27869;51.442;7.540;2024-01-06T02:01:27;11.57;;;4.60;;
42200;SDS011;27869;51.442;7.540;2024-01-06T02:03:54;12.77;;;4.30;;
42200;SDS011;27869;51.442;7.540;2024-01-06T02:06:21;14.90;;;5.32;;
42200;SDS011;27869;51.442;7.540;2024-01-06T02:08:48;10.52;;;3.95;;
42200;SDS011;27869;51.442;7.540;2024-01-06T02:11:16;11.82;;;4.22;;
42200;SDS011;27869;51.442;7.540;2024-01-06T02:13:43;11.98;;;4.93;;
42200;SDS011;27869;51.442;7.540;2024-01-06T02:16:10;12.80;;;4.80;;
42200;SDS011;27869;51.442;7.540;2024-01-06T02:18:37;12.75;;;5.10;;
42200;SDS011;27869;51.442;7.540;2024-01-06T02:21:04;12.55;;;5.00;;
42200;SDS011;27869;51.442;7.540;2024-01-06T02:23:35;11.70;;;4.78;;
42200;SDS011;27869;51.442;7.540;2024-01-06T02:26:03;12.52;;;4.57;;
42200;SDS011;27869;51.442;7.540;2024-01-06T02:28:29;13.65;;;5.07;;
42200;SDS011;27869;51.442;7.540;2024-01-06T02:30:56;12.57;;;4.68;;
42200;SDS011;27869;51.442;7.540;2024-01-06T02:33:23;12.10;;;4.85;;
42200;SDS011;27869;51.442;7.540;2024-01-06T02:35:50;12.68;;;5.30;;
42200;SDS011;27869;51.442;7.540;2024-01-06T02:38:17;12.93;;;4.80;;
42200;SDS011;27869;51.442;7.540;2024-01-06T02:40:45;11.88;;;4.65;;
42200;SDS011;27869;51.442;7.540;2024-01-06T02:43:12;12.68;;;4.65;;
42200;SDS011;27869;51.442;7.540;2024-01-06T02:45:39;11.52;;;5.03;;
42200;SDS011;27869;51.442;7.540;2024-01-06T02:48:06;12.43;;;4.72;;
42200;SDS011;27869;51.442;7.540;2024-01-06T02:50:33;13.18;;;5.15;;
42200;SDS011;27869;51.442;7.540;2024-01-06T02:53:00;12.98;;;4.70;;
42200;SDS011;27869;51.442;7.540;2024-01-06T02:55:27;12.38;;;4.90;;
42200;SDS011;27869;51.442;7.540;2024-01-06T02:57:55;11.70;;;4.47;;
42200;SDS011;27869;51.442;7.540;2024-01-06T03:00:22;10.93;;;4.45;;
42200;SDS011;27869;51.442;7.540;2024-01-06T03:02:50;10.48;;;3.97;;
42200;SDS011;27869;51.442;7.540;2024-01-06T03:05:17;10.65;;;4.03;;
42200;SDS011;27869;51.442;7.540;2024-01-06T03:07:44;10.95;;;3.90;;
42200;SDS011;27869;51.442;7.540;2024-01-06T03:10:11;10.35;;;3.72;;
42200;SDS011;27869;51.442;7.540;2024-01-06T03:12:38;10.75;;;3.85;;
42200;SDS011;27869;51.442;7.540;2024-01-06T03:15:07;10.38;;;3.75;;
42200;SDS011;27869;51.442;7.540;2024-01-06T03:17:34;11.57;;;4.03;;
42200;SDS011;27869;51.442;7.540;2024-01-06T03:20:01;10.50;;;3.42;;
42200;SDS011;27869;51.442;7.540;2024-01-06T03:22:29;10.75;;;3.60;;
42200;SDS011;27869;51.442;7.540;2024-01-06T03:24:55;10.63;;;3.60;;
42200;SDS011;27869;51.442;7.540;2024-01-06T03:27:22;10.52;;;3.50;;
42200;SDS011;27869;51.442;7.540;2024-01-06T03:29:49;11.63;;;3.72;;
42200;SDS011;27869;51.442;7.540;2024-01-06T03:32:18;10.07;;;3.28;;
42200;SDS011;27869;51.442;7.540;2024-01-06T03:34:44;10.57;;;3.67;;
42200;SDS011;27869;51.442;7.540;2024-01-06T03:37:11;10.15;;;3.15;;
42200;SDS011;27869;51.442;7.540;2024-01-06T03:39:38;10.27;;;3.65;;
42200;SDS011;27869;51.442;7.540;2024-01-06T03:42:05;10.50;;;3.20;;
42200;SDS011;27869;51.442;7.540;2024-01-06T03:44:32;11.10;;;3.58;;
42200;SDS011;27869;51.442;7.540;2024-01-06T03:47:00;10.77;;;3.33;;
42200;SDS011;27869;51.442;7.540;2024-01-06T03:49:28;10.77;;;3.58;;
42200;SDS011;27869;51.442;7.540;2024-01-06T03:51:55;10.13;;;3.40;;
42200;SDS011;27869;51.442;7.540;2024-01-06T03:54:22;10.45;;;3.40;;
42200;SDS011;27869;51.442;7.540;2024-01-06T03:56:49;10.52;;;4.05;;
42200;SDS011;27869;51.442;7.540;2024-01-06T03:59:16;12.10;;;4.43;;
42200;SDS011;27869;51.442;7.540;2024-01-06T04:01:43;11.57;;;4.15;;
42200;SDS011;27869;51.442;7.540;2024-01-06T04:04:09;11.70;;;4.30;;
42200;SDS011;27869;51.442;7.540;2024-01-06T04:06:38;11.30;;;4.20;;
42200;SDS011;27869;51.442;7.540;2024-01-06T04:09:04;11.43;;;4.18;;
42200;SDS011;27869;51.442;7.540;2024-01-06T04:11:31;13.55;;;5.28;;
42200;SDS011;27869;51.442;7.540;2024-01-06T04:13:58;13.93;;;5.25;;
42200;SDS011;27869;51.442;7.540;2024-01-06T04:16:25;13.95;;;5.68;;
42200;SDS011;27869;51.442;7.540;2024-01-06T04:18:53;16.48;;;6.43;;
42200;SDS011;27869;51.442;7.540;2024-01-06T04:21:22;15.55;;;6.90;;
42200;SDS011;27869;51.442;7.540;2024-01-06T04:23:50;15.50;;;6.32;;
42200;SDS011;27869;51.442;7.540;2024-01-06T04:26:17;15.85;;;6.15;;
42200;SDS011;27869;51.442;7.540;2024-01-06T04:28:44;16.05;;;6.63;;
42200;SDS011;27869;51.442;7.540;2024-01-06T04:31:11;17.13;;;6.93;;
42200;SDS011;27869;51.442;7.540;2024-01-06T04:33:38;15.55;;;6.57;;
42200;SDS011;27869;51.442;7.540;2024-01-06T04:36:05;16.27;;;6.88;;
42200;SDS011;27869;51.442;7.540;2024-01-06T04:38:33;16.10;;;6.65;;
42200;SDS011;27869;51.442;7.540;2024-01-06T04:41:01;15.40;;;6.28;;
42200;SDS011;27869;51.442;7.540;2024-01-06T04:43:28;16.67;;;6.85;;
42200;SDS011;27869;51.442;7.540;2024-01-06T04:45:55;15.80;;;6.25;;
42200;SDS011;27869;51.442;7.540;2024-01-06T04:48:23;16.05;;;6.60;;
42200;SDS011;27869;51.442;7.540;2024-01-06T04:50:50;17.80;;;6.20;;
42200;SDS011;27869;51.442;7.540;2024-01-06T04:53:17;16.15;;;6.72;;
42200;SDS011;27869;51.442;7.540;2024-01-06T04:55:43;15.52;;;6.30;;
42200;SDS011;27869;51.442;7.540;2024-01-06T04:58:12;16.83;;;6.28;;
42200;SDS011;27869;51.442;7.540;2024-01-06T05:00:39;16.02;;;6.45;;
42200;SDS011;27869;51.442;7.540;2024-01-06T05:03:05;15.43;;;5.85;;
42200;SDS011;27869;51.442;7.540;2024-01-06T05:05:33;15.35;;;6.13;;
42200;SDS011;27869;51.442;7.540;2024-01-06T05:08:00;16.25;;;6.63;;
42200;SDS011;27869;51.442;7.540;2024-01-06T05:10:27;14.57;;;5.72;;
42200;SDS011;27869;51.442;7.540;2024-01-06T05:12:53;14.15;;;5.75;;
42200;SDS011;27869;51.442;7.540;2024-01-06T05:15:22;15.82;;;6.15;;
42200;SDS011;27869;51.442;7.540;2024-01-06T05:17:49;15.88;;;6.43;;
42200;SDS011;27869;51.442;7.540;2024-01-06T05:20:15;15.25;;;5.90;;
42200;SDS011;27869;51.442;7.540;2024-01-06T05:22:42;16.10;;;6.18;;
42200;SDS011;27869;51.442;7.540;2024-01-06T05:25:09;15.75;;;6.32;;
42200;SDS011;27869;51.442;7.540;2024-01-06T05:27:36;17.77;;;6.20;;
42200;SDS011;27869;51.442;7.540;2024-01-06T05:30:03;15.65;;;5.95;;
42200;SDS011;27869;51.442;7.540;2024-01-06T05:32:32;15.80;;;5.55;;
42200;SDS011;27869;51.442;7.540;2024-01-06T05:34:59;14.55;;;5.65;;
42200;SDS011;27869;51.442;7.540;2024-01-06T05:37:26;17.23;;;6.30;;
42200;SDS011;27869;51.442;7.540;2024-01-06T05:39:55;16.17;;;6.40;;
42200;SDS011;27869;51.442;7.540;2024-01-06T05:42:26;15.07;;;5.97;;
42200;SDS011;27869;51.442;7.540;2024-01-06T05:44:53;15.10;;;5.82;;
42200;SDS011;27869;51.442;7.540;2024-01-06T05:47:20;15.35;;;5.82;;
42200;SDS011;27869;51.442;7.540;2024-01-06T05:49:48;15.32;;;5.95;;
42200;SDS011;27869;51.442;7.540;2024-01-06T05:52:15;16.30;;;6.45;;
42200;SDS011;27869;51.442;7.540;2024-01-06T05:54:42;15.60;;;5.90;;
42200;SDS011;27869;51.442;7.540;2024-01-06T05:57:09;15.38;;;6.05;;
42200;SDS011;27869;51.442;7.540;2024-01-06T05:59:36;16.48;;;6.35;;
42200;SDS011;27869;51.442;7.540;2024-01-06T06:02:03;17.85;;;6.50;;
42200;SDS011;27869;51.442;7.540;2024-01-06T06:04:30;16.00;;;6.20;;
42200;SDS011;27869;51.442;7.540;2024-01-06T06:06:58;15.93;;;6.13;;
42200;SDS011;27869;51.442;7.540;2024-01-06T06:09:25;16.85;;;6.40;;
42200;SDS011;27869;51.442;7.540;2024-01-06T06:11:53;16.73;;;6.75;;
42200;SDS011;27869;51.442;7.540;2024-01-06T06:14:20;17.23;;;6.78;;
42200;SDS011;27869;51.442;7.540;2024-01-06T06:16:47;15.35;;;6.38;;
42200;SDS011;27869;51.442;7.540;2024-01-06T06:19:14;18.25;;;7.07;;
42200;SDS011;27869;51.442;7.540;2024-01-06T06:21:42;16.50;;;6.25;;
42200;SDS011;27869;51.442;7.540;2024-01-06T06:24:10;15.05;;;6.32;;
42200;SDS011;27869;51.442;7.540;2024-01-06T06:26:37;16.75;;;6.50;;
42200;SDS011;27869;51.442;7.540;2024-01-06T06:29:04;16.58;;;6.72;;
42200;SDS011;27869;51.442;7.540;2024-01-06T06:31:31;16.98;;;6.18;;
42200;SDS011;27869;51.442;7.540;2024-01-06T06:33:58;16.77;;;6.03;;
42200;SDS011;27869;51.442;7.540;2024-01-06T06:36:25;16.10;;;6.25;;
42200;SDS011;27869;51.442;7.540;2024-01-06T06:38:52;17.00;;;6.38;;
42200;SDS011;27869;51.442;7.540;2024-01-06T06:41:24;17.83;;;6.47;;
42200;SDS011;27869;51.442;7.540;2024-01-06T06:43:51;16.52;;;6.38;;
42200;SDS011;27869;51.442;7.540;2024-01-06T06:46:18;17.80;;;6.75;;
42200;SDS011;27869;51.442;7.540;2024-01-06T06:48:44;17.27;;;6.80;;
42200;SDS011;27869;51.442;7.540;2024-01-06T06:51:11;16.77;;;6.75;;
42200;SDS011;27869;51.442;7.540;2024-01-06T06:53:38;16.05;;;6.13;;
42200;SDS011;27869;51.442;7.540;2024-01-06T06:56:05;15.27;;;6.03;;
42200;SDS011;27869;51.442;7.540;2024-01-06T06:58:34;16.05;;;6.07;;
42200;SDS011;27869;51.442;7.540;2024-01-06T07:01:01;15.23;;;6.05;;
42200;SDS011;27869;51.442;7.540;2024-01-06T07:03:28;16.75;;;6.30;;
42200;SDS011;27869;51.442;7.540;2024-01-06T07:05:56;15.70;;;6.15;;
42200;SDS011;27869;51.442;7.540;2024-01-06T07:08:23;16.17;;;5.97;;
42200;SDS011;27869;51.442;7.540;2024-01-06T07:10:50;15.13;;;6.05;;
42200;SDS011;27869;51.442;7.540;2024-01-06T07:13:17;15.35;;;5.85;;
42200;SDS011;27869;51.442;7.540;2024-01-06T07:15:45;17.83;;;6.95;;
42200;SDS011;27869;51.442;7.540;2024-01-06T07:18:12;16.35;;;6.30;;
42200;SDS011;27869;51.442;7.540;2024-01-06T07:20:39;16.10;;;6.50;;
42200;SDS011;27869;51.442;7.540;2024-01-06T07:23:06;16.15;;;6.32;;
42200;SDS011;27869;51.442;7.540;2024-01-06T07:25:33;16.15;;;6.32;;
42200;SDS011;27869;51.442;7.540;2024-01-06T07:28:02;17.92;;;7.00;;
42200;SDS011;27869;51.442;7.540;2024-01-06T07:30:29;15.95;;;6.80;;
42200;SDS011;27869;51.442;7.540;2024-01-06T07:32:57;15.50;;;6.20;;
42200;SDS011;27869;51.442;7.540;2024-01-06T07:35:24;16.30;;;6.53;;
42200;SDS011;27869;51.442;7.540;2024-01-06T07:37:51;16.15;;;6.40;;
42200;SDS011;27869;51.442;7.540;2024-01-06T07:40:18;16.02;;;6.63;;
42200;SDS011;27869;51.442;7.540;2024-01-06T07:42:45;16.33;;;6.70;;
42200;SDS011;27869;51.442;7.540;2024-01-06T07:45:11;16.27;;;6.47;;
42200;SDS011;27869;51.442;7.540;2024-01-06T07:47:39;16.58;;;6.72;;
42200;SDS011;27869;51.442;7.540;2024-01-06T07:50:08;15.55;;;6.10;;
42200;SDS011;27869;51.442;7.540;2024-01-06T07:52:35;15.70;;;6.25;;
42200;SDS011;27869;51.442;7.540;2024-01-06T07:55:05;15.50;;;5.97;;
42200;SDS011;27869;51.442;7.540;2024-01-06T07:57:34;15.40;;;6.50;;
42200;SDS011;27869;51.442;7.540;2024-01-06T08:00:01;15.45;;;5.88;;
42200;SDS011;27869;51.442;7.540;2024-01-06T08:02:29;15.00;;;6.10;;
42200;SDS011;27869;51.442;7.540;2024-01-06T08:04:56;15.43;;;6.57;;
42200;SDS011;27869;51.442;7.540;2024-01-06T08:07:24;15.88;;;6.13;;
42200;SDS011;27869;51.442;7.540;2024-01-06T08:09:51;15.23;;;5.78;;
42200;SDS011;27869;51.442;7.540;2024-01-06T08:12:18;15.50;;;6.50;;
42200;SDS011;27869;51.442;7.540;2024-01-06T08:14:45;15.55;;;6.38;;
42200;SDS011;27869;51.442;7.540;2024-01-06T08:17:12;16.48;;;6.35;;
42200;SDS011;27869;51.442;7.540;2024-01-06T08:19:39;16.70;;;7.22;;
42200;SDS011;27869;51.442;7.540;2024-01-06T08:22:06;18.13;;;7.03;;
42200;SDS011;27869;51.442;7.540;2024-01-06T08:24:35;14.80;;;5.93;;
42200;SDS011;27869;51.442;7.540;2024-01-06T08:27:02;15.60;;;6.55;;
42200;SDS011;27869;51.442;7.540;2024-01-06T08:29:29;16.20;;;5.88;;
42200;SDS011;27869;51.442;7.540;2024-01-06T08:31:56;16.97;;;6.83;;
42200;SDS011;27869;51.442;7.540;2024-01-06T08:34:23;16.20;;;6.22;;
42200;SDS011;27869;51.442;7.540;2024-01-06T08:36:50;16.75;;;6.85;;
42200;SDS011;27869;51.442;7.540;2024-01-06T08:39:16;17.33;;;7.18;;
42200;SDS011;27869;51.442;7.540;2024-01-06T08:41:45;16.50;;;6.60;;
42200;SDS011;27869;51.442;7.540;2024-01-06T08:44:13;15.48;;;6.13;;
42200;SDS011;27869;51.442;7.540;2024-01-06T08:46:40;16.30;;;7.07;;
42200;SDS011;27869;51.442;7.540;2024-01-06T08:49:07;19.00;;;8.68;;
42200;SDS011;27869;51.442;7.540;2024-01-06T08:51:34;20.35;;;8.68;;
42200;SDS011;27869;51.442;7.540;2024-01-06T08:54:00;20.45;;;9.07;;
42200;SDS011;27869;51.442;7.540;2024-01-06T08:56:29;21.98;;;9.95;;
42200;SDS011;27869;51.442;7.540;2024-01-06T08:58:58;20.90;;;9.07;;
42200;SDS011;27869;51.442;7.540;2024-01-06T09:01:25;21.35;;;9.13;;
42200;SDS011;27869;51.442;7.540;2024-01-06T09:03:52;20.50;;;8.55;;
42200;SDS011;27869;51.442;7.540;2024-01-06T09:06:19;20.52;;;8.85;;
42200;SDS011;27869;51.442;7.540;2024-01-06T09:08:46;20.58;;;8.73;;
42200;SDS011;27869;51.442;7.540;2024-01-06T09:11:13;27.20;;;10.15;;
42200;SDS011;27869;51.442;7.540;2024-01-06T09:13:39;21.10;;;8.65;;
42200;SDS011;27869;51.442;7.540;2024-01-06T09:16:08;23.27;;;9.75;;
42200;SDS011;27869;51.442;7.540;2024-01-06T09:18:36;22.67;;;8.48;;
42200;SDS011;27869;51.442;7.540;2024-01-06T09:21:03;19.75;;;8.50;;
42200;SDS011;27869;51.442;7.540;2024-01-06T09:23:30;19.60;;;7.90;;
42200;SDS011;27869;51.442;7.540;2024-01-06T09:25:57;19.73;;;7.90;;
42200;SDS011;27869;51.442;7.540;2024-01-06T09:28:24;19.85;;;7.55;;
42200;SDS011;27869;51.442;7.540;2024-01-06T09:30:51;17.95;;;7.28;;
42200;SDS011;27869;51.442;7.540;2024-01-06T09:35:48;16.77;;;6.68;;
42200;SDS011;27869;51.442;7.540;2024-01-06T09:38:15;16.58;;;6.30;;
42200;SDS011;27869;51.442;7.540;2024-01-06T09:40:43;15.90;;;5.90;;
42200;SDS011;27869;51.442;7.540;2024-01-06T09:43:10;15.60;;;5.75;;
42200;SDS011;27869;51.442;7.540;2024-01-06T09:45:38;16.98;;;5.75;;
42200;SDS011;27869;51.442;7.540;2024-01-06T09:48:08;15.15;;;5.07;;
42200;SDS011;27869;51.442;7.540;2024-01-06T09:50:40;16.50;;;5.03;;
42200;SDS011;27869;51.442;7.540;2024-01-06T09:53:08;15.48;;;5.15;;
42200;SDS011;27869;51.442;7.540;2024-01-06T09:55:36;14.93;;;5.03;;
42200;SDS011;27869;51.442;7.540;2024-01-06T09:58:04;12.02;;;3.78;;
42200;SDS011;27869;51.442;7.540;2024-01-06T10:00:31;13.40;;;4.60;;
42200;SDS011;27869;51.442;7.540;2024-01-06T10:02:58;13.80;;;4.35;;
42200;SDS011;27869;51.442;7.540;2024-01-06T10:05:25;12.32;;;3.92;;
42200;SDS011;27869;51.442;7.540;2024-01-06T10:07:54;13.43;;;4.18;;
42200;SDS011;27869;51.442;7.540;2024-01-06T10:10:22;13.20;;;4.18;;
42200;SDS011;27869;51.442;7.540;2024-01-06T10:12:49;14.40;;;4.72;;
42200;SDS011;27869;51.442;7.540;2024-01-06T10:15:20;13.15;;;4.00;;
42200;SDS011;27869;51.442;7.540;2024-01-06T10:17:47;12.75;;;4.43;;
42200;SDS011;27869;51.442;7.540;2024-01-06T10:20:15;13.18;;;4.22;;
42200;SDS011;27869;51.442;7.540;2024-01-06T10:22:42;12.38;;;4.00;;
42200;SDS011;27869;51.442;7.540;2024-01-06T10:25:11;15.30;;;3.92;;
42200;SDS011;27869;51.442;7.540;2024-01-06T10:27:38;11.65;;;3.78;;
42200;SDS011;27869;51.442;7.540;2024-01-06T10:30:07;12.65;;;4.30;;
42200;SDS011;27869;51.442;7.540;2024-01-06T10:35:03;11.02;;;3.42;;
42200;SDS011;27869;51.442;7.540;2024-01-06T10:37:32;13.05;;;3.90;;
42200;SDS011;27869;51.442;7.540;2024-01-06T10:40:06;12.25;;;3.97;;
42200;SDS011;27869;51.442;7.540;2024-01-06T10:42:39;11.40;;;3.13;;
42200;SDS011;27869;51.442;7.540;2024-01-06T10:47:35;11.88;;;3.35;;
42200;SDS011;27869;51.442;7.540;2024-01-06T10:50:02;10.90;;;2.97;;
42200;SDS011;27869;51.442;7.540;2024-01-06T10:52:30;11.35;;;3.60;;
42200;SDS011;27869;51.442;7.540;2024-01-06T10:54:57;11.55;;;3.78;;
42200;SDS011;27869;51.442;7.540;2024-01-06T10:57:25;11.63;;;3.75;;
42200;SDS011;27869;51.442;7.540;2024-01-06T10:59:54;13.23;;;3.80;;
42200;SDS011;27869;51.442;7.540;2024-01-06T11:02:23;12.93;;;3.80;;
42200;SDS011;27869;51.442;7.540;2024-01-06T11:04:51;11.48;;;3.40;;
42200;SDS011;27869;51.442;7.540;2024-01-06T11:07:19;11.85;;;3.83;;
42200;SDS011;27869;51.442;7.540;2024-01-06T11:09:48;12.07;;;3.78;;
42200;SDS011;27869;51.442;7.540;2024-01-06T11:12:18;12.02;;;4.25;;
42200;SDS011;27869;51.442;7.540;2024-01-06T11:14:46;13.43;;;4.72;;
42200;SDS011;27869;51.442;7.540;2024-01-06T11:17:14;14.43;;;4.85;;
42200;SDS011;27869;51.442;7.540;2024-01-06T11:20:18;13.77;;;4.75;;
42200;SDS011;27869;51.442;7.540;2024-01-06T11:22:46;12.43;;;3.92;;
42200;SDS011;27869;51.442;7.540;2024-01-06T11:25:14;15.25;;;4.45;;
42200;SDS011;27869;51.442;7.540;2024-01-06T11:27:42;13.20;;;4.43;;
42200;SDS011;27869;51.442;7.540;2024-01-06T11:30:18;13.48;;;4.60;;
42200;SDS011;27869;51.442;7.540;2024-01-06T11:32:48;14.68;;;4.78;;
42200;SDS011;27869;51.442;7.540;2024-01-06T11:35:18;14.75;;;4.70;;
42200;SDS011;27869;51.442;7.540;2024-01-06T11:37:53;13.32;;;4.63;;
42200;SDS011;27869;51.442;7.540;2024-01-06T11:40:23;15.10;;;4.78;;
42200;SDS011;27869;51.442;7.540;2024-01-06T11:42:58;13.32;;;4.88;;
42200;SDS011;27869;51.442;7.540;2024-01-06T11:45:30;13.90;;;4.68;;
42200;SDS011;27869;51.442;7.540;2024-01-06T11:48:00;14.15;;;4.53;;
42200;SDS011;27869;51.442;7.540;2024-01-06T11:50:28;15.10;;;5.15;;
42200;SDS011;27869;51.442;7.540;2024-01-06T11:52:56;14.82;;;5.40;;
42200;SDS011;27869;51.442;7.540;2024-01-06T11:55:24;14.55;;;5.28;;
42200;SDS011;27869;51.442;7.540;2024-01-06T11:57:53;16.73;;;5.85;;
42200;SDS011;27869;51.442;7.540;2024-01-06T12:00:21;14.85;;;5.00;;
42200;SDS011;27869;51.442;7.540;2024-01-06T12:02:48;14.77;;;5.13;;
42200;SDS011;27869;51.442;7.540;2024-01-06T12:05:17;14.30;;;5.03;;
42200;SDS011;27869;51.442;7.540;2024-01-06T12:07:52;16.88;;;5.25;;
42200;SDS011;27869;51.442;7.540;2024-01-06T12:10:20;14.23;;;4.75;;
42200;SDS011;27869;51.442;7.540;2024-01-06T12:12:54;13.73;;;4.43;;
42200;SDS011;27869;51.442;7.540;2024-01-06T12:15:23;13.90;;;4.53;;
42200;SDS011;27869;51.442;7.540;2024-01-06T12:17:50;12.60;;;4.60;;
42200;SDS011;27869;51.442;7.540;2024-01-06T12:20:18;13.45;;;4.43;;
42200;SDS011;27869;51.442;7.540;2024-01-06T12:22:47;14.75;;;5.07;;
42200;SDS011;27869;51.442;7.540;2024-01-06T12:25:14;15.73;;;5.85;;
42200;SDS011;27869;51.442;7.540;2024-01-06T12:27:42;15.90;;;5.93;;
42200;SDS011;27869;51.442;7.540;2024-01-06T12:30:12;15.27;;;5.97;;
42200;SDS011;27869;51.442;7.540;2024-01-06T12:32:42;15.95;;;5.63;;
42200;SDS011;27869;51.442;7.540;2024-01-06T12:35:10;13.95;;;5.30;;
42200;SDS011;27869;51.442;7.540;2024-01-06T12:37:39;14.45;;;5.38;;
42200;SDS011;27869;51.442;7.540;2024-01-06T12:40:08;14.43;;;4.93;;
42200;SDS011;27869;51.442;7.540;2024-01-06T12:42:36;14.32;;;5.45;;
42200;SDS011;27869;51.442;7.540;2024-01-06T12:45:04;15.15;;;5.55;;
42200;SDS011;27869;51.442;7.540;2024-01-06T12:47:32;17.45;;;7.00;;
42200;SDS011;27869;51.442;7.540;2024-01-06T12:49:59;19.05;;;7.88;;
42200;SDS011;27869;51.442;7.540;2024-01-06T12:52:26;20.58;;;8.50;;
42200;SDS011;27869;51.442;7.540;2024-01-06T12:54:55;19.10;;;7.88;;
42200;SDS011;27869;51.442;7.540;2024-01-06T12:57:21;17.98;;;7.68;;
42200;SDS011;27869;51.442;7.540;2024-01-06T12:59:49;21.15;;;8.88;;
42200;SDS011;27869;51.442;7.540;2024-01-06T13:02:16;22.38;;;8.95;;
42200;SDS011;27869;51.442;7.540;2024-01-06T13:04:43;20.45;;;7.78;;
42200;SDS011;27869;51.442;7.540;2024-01-06T13:07:10;19.42;;;8.38;;
42200;SDS011;27869;51.442;7.540;2024-01-06T13:09:36;20.48;;;8.32;;
42200;SDS011;27869;51.442;7.540;2024-01-06T13:12:05;20.35;;;8.02;;
42200;SDS011;27869;51.442;7.540;2024-01-06T13:14:33;19.23;;;8.02;;
42200;SDS011;27869;51.442;7.540;2024-01-06T13:17:00;18.25;;;7.57;;
42200;SDS011;27869;51.442;7.540;2024-01-06T13:19:27;18.00;;;6.55;;
42200;SDS011;27869;51.442;7.540;2024-01-06T13:21:54;19.58;;;7.05;;
42200;SDS011;27869;51.442;7.540;2024-01-06T13:24:21;17.73;;;6.60;;
42200;SDS011;27869;51.442;7.540;2024-01-06T13:26:49;17.40;;;7.10;;
42200;SDS011;27869;51.442;7.540;2024-01-06T13:29:17;18.50;;;7.22;;
42200;SDS011;27869;51.442;7.540;2024-01-06T13:31:45;18.80;;;7.70;;
42200;SDS011;27869;51.442;7.540;2024-01-06T13:34:12;17.80;;;7.15;;
42200;SDS011;27869;51.442;7.540;2024-01-06T13:36:39;17.38;;;6.75;;
42200;SDS011;27869;51.442;7.540;2024-01-06T13:39:06;17.30;;;6.90;;
42200;SDS011;27869;51.442;7.540;2024-01-06T13:41:33;16.90;;;6.15;;
42200;SDS011;27869;51.442;7.540;2024-01-06T13:44:00;16.08;;;6.10;;
42200;SDS011;27869;51.442;7.540;2024-01-06T13:46:29;17.40;;;6.20;;
42200;SDS011;27869;51.442;7.540;2024-01-06T13:48:56;16.02;;;5.85;;
42200;SDS011;27869;51.442;7.540;2024-01-06T13:51:23;14.48;;;5.38;;
42200;SDS011;27869;51.442;7.540;2024-01-06T13:53:50;14.32;;;5.35;;
42200;SDS011;27869;51.442;7.540;2024-01-06T13:56:17;14.75;;;5.35;;
42200;SDS011;27869;51.442;7.540;2024-01-06T13:58:44;12.95;;;4.10;;
42200;SDS011;27869;51.442;7.540;2024-01-06T14:01:12;12.35;;;4.38;;
42200;SDS011;27869;51.442;7.540;2024-01-06T14:03:40;12.32;;;4.00;;
42200;SDS011;27869;51.442;7.540;2024-01-06T14:06:07;10.00;;;3.42;;
42200;SDS011;27869;51.442;7.540;2024-01-06T14:08:34;11.57;;;4.03;;
42200;SDS011;27869;51.442;7.540;2024-01-06T14:11:01;11.27;;;3.60;;
42200;SDS011;27869;51.442;7.540;2024-01-06T14:13:28;10.55;;;3.17;;
42200;SDS011;27869;51.442;7.540;2024-01-06T14:15:54;11.25;;;3.83;;
42200;SDS011;27869;51.442;7.540;2024-01-06T14:18:22;11.68;;;3.50;;
42200;SDS011;27869;51.442;7.540;2024-01-06T14:20:50;12.18;;;3.80;;
42200;SDS011;27869;51.442;7.540;2024-01-06T14:23:17;14.52;;;4.00;;
42200;SDS011;27869;51.442;7.540;2024-01-06T14:25:45;11.85;;;3.92;;
42200;SDS011;27869;51.442;7.540;2024-01-06T14:28:12;11.85;;;3.78;;
42200;SDS011;27869;51.442;7.540;2024-01-06T14:30:39;13.98;;;4.28;;
42200;SDS011;27869;51.442;7.540;2024-01-06T14:33:06;10.48;;;3.42;;
42200;SDS011;27869;51.442;7.540;2024-01-06T14:35:34;11.07;;;3.60;;
42200;SDS011;27869;51.442;7.540;2024-01-06T14:38:02;12.20;;;3.90;;
42200;SDS011;27869;51.442;7.540;2024-01-06T14:40:30;10.88;;;3.38;;
42200;SDS011;27869;51.442;7.540;2024-01-06T14:42:57;10.88;;;3.50;;
42200;SDS011;27869;51.442;7.540;2024-01-06T14:45:27;12.02;;;3.97;;